createdAt,value
2022-12-18T00:02:14.694Z,18.55
2022-12-18T00:04:41.388Z,19.13
2022-12-18T00:07:08.046Z,17.17
2022-12-18T00:09:40.005Z,18.23
2022-12-18T00:14:45.457Z,17.83
2022-12-18T00:17:12.269Z,16.90
2022-12-18T00:19:38.957Z,17.80
2022-12-18T00:22:07.068Z,18.25
2022-12-18T00:24:33.813Z,15.73
2022-12-18T00:27:00.432Z,16.50
2022-12-18T00:29:27.077Z,16.60
2022-12-18T00:31:53.749Z,15.85
2022-12-18T00:34:20.366Z,18.27
2022-12-18T00:36:48.938Z,17.45
2022-12-18T00:39:15.610Z,16.38
2022-12-18T00:42:00.323Z,14.30
2022-12-18T00:44:26.940Z,15.48
2022-12-18T00:46:53.513Z,15.93
2022-12-18T00:49:21.148Z,17.73
2022-12-18T00:51:48.761Z,15.35
2022-12-18T00:54:16.011Z,16.27
2022-12-18T00:56:49.009Z,16.75
2022-12-18T00:59:17.226Z,19.55
2022-12-18T01:01:43.956Z,16.55
2022-12-18T01:04:10.718Z,17.67
2022-12-18T01:06:37.476Z,15.32
2022-12-18T01:09:04.192Z,15.70
2022-12-18T01:11:31.506Z,15.48
2022-12-18T01:14:01.397Z,15.75
2022-12-18T01:16:28.081Z,16.25
2022-12-18T01:18:55.593Z,15.60
2022-12-18T01:21:24.189Z,15.32
2022-12-18T01:23:56.044Z,14.73
2022-12-18T01:26:23.565Z,15.63
2022-12-18T01:28:50.188Z,15.30
2022-12-18T01:31:28.557Z,15.85
2022-12-18T01:33:55.914Z,14.73
2022-12-18T01:36:24.021Z,16.95
2022-12-18T01:38:51.704Z,15.38
2022-12-18T01:41:20.392Z,16.65
2022-12-18T01:43:58.330Z,16.08
2022-12-18T01:46:28.893Z,16.08
2022-12-18T01:48:58.940Z,15.63
2022-12-18T01:51:27.973Z,15.10
2022-12-18T01:53:54.617Z,15.68
2022-12-18T01:56:22.205Z,16.90
2022-12-18T01:59:07.673Z,17.67
2022-12-18T02:01:34.506Z,15.77
2022-12-18T02:04:24.966Z,15.23
2022-12-18T02:06:59.746Z,15.15
2022-12-18T02:09:34.935Z,14.25
2022-12-18T02:12:19.461Z,14.55
2022-12-18T02:14:52.069Z,12.98
2022-12-18T02:17:23.442Z,12.75
2022-12-18T02:20:15.147Z,12.00
2022-12-18T02:22:51.169Z,12.25
2022-12-18T02:25:55.405Z,11.48
2022-12-18T02:28:25.166Z,11.25
2022-12-18T02:30:54.587Z,12.65
2022-12-18T02:33:22.584Z,12.00
2022-12-18T02:35:50.794Z,11.55
2022-12-18T02:38:18.060Z,13.05
2022-12-18T02:40:46.228Z,12.82
2022-12-18T02:43:16.624Z,15.10
2022-12-18T02:45:50.775Z,15.52
2022-12-18T02:48:20.159Z,15.52
2022-12-18T02:50:59.444Z,15.88
2022-12-18T02:53:33.318Z,15.13
2022-12-18T02:56:18.251Z,13.00
2022-12-18T02:59:02.198Z,13.20
2022-12-18T03:01:34.689Z,12.15
2022-12-18T03:04:08.298Z,12.27
2022-12-18T03:06:43.438Z,12.48
2022-12-18T03:09:25.693Z,12.27
2022-12-18T03:12:26.084Z,13.17
2022-12-18T03:15:01.629Z,12.75
2022-12-18T03:17:31.373Z,12.32
2022-12-18T03:20:03.395Z,12.07
2022-12-18T03:22:33.189Z,12.75
2022-12-18T03:25:03.230Z,12.05
2022-12-18T03:27:32.411Z,13.05
2022-12-18T03:30:08.531Z,12.02
2022-12-18T03:33:04.778Z,11.40
2022-12-18T03:35:37.272Z,13.57
2022-12-18T03:38:04.059Z,12.95
2022-12-18T03:40:48.673Z,12.05
2022-12-18T03:43:28.802Z,12.07
2022-12-18T03:46:23.651Z,13.25
2022-12-18T03:48:57.503Z,14.73
2022-12-18T03:51:47.703Z,13.77
2022-12-18T03:54:15.298Z,13.43
2022-12-18T03:56:48.084Z,12.02
2022-12-18T03:59:17.964Z,12.68
2022-12-18T04:01:48.843Z,13.63
2022-12-18T04:04:17.673Z,14.95
2022-12-18T04:06:46.389Z,12.20
2022-12-18T04:09:13.985Z,13.82
2022-12-18T04:11:43.200Z,12.60
2022-12-18T04:14:11.939Z,13.10
2022-12-18T04:16:42.637Z,12.30
2022-12-18T04:19:09.279Z,12.43
2022-12-18T04:21:35.859Z,12.95
2022-12-18T04:24:02.623Z,13.00
2022-12-18T04:26:29.232Z,12.27
2022-12-18T04:28:55.845Z,11.98
2022-12-18T04:31:22.830Z,12.50
2022-12-18T04:33:49.584Z,11.25
2022-12-18T04:36:16.218Z,12.23
2022-12-18T04:38:42.903Z,13.75
2022-12-18T04:41:09.542Z,12.68
2022-12-18T04:43:36.272Z,12.90
2022-12-18T04:46:07.589Z,15.10
2022-12-18T04:48:34.844Z,13.65
2022-12-18T04:51:01.476Z,13.10
2022-12-18T04:53:28.088Z,14.13
2022-12-18T04:56:23.976Z,13.55
2022-12-18T04:58:50.808Z,12.18
2022-12-18T05:01:18.815Z,14.50
2022-12-18T05:03:46.144Z,14.10
2022-12-18T05:06:12.884Z,13.77
2022-12-18T05:08:39.557Z,14.63
2022-12-18T05:11:12.102Z,13.07
2022-12-18T05:13:39.535Z,14.18
2022-12-18T05:16:07.101Z,13.85
2022-12-18T05:18:34.337Z,14.60
2022-12-18T05:21:01.049Z,16.50
2022-12-18T05:23:28.398Z,14.15
2022-12-18T05:25:55.953Z,14.40
2022-12-18T05:28:23.828Z,13.90
2022-12-18T05:30:55.411Z,13.65
2022-12-18T05:33:23.353Z,14.05
2022-12-18T05:35:54.309Z,12.82
2022-12-18T05:38:21.927Z,13.52
2022-12-18T05:40:49.330Z,10.77
2022-12-18T05:43:20.995Z,13.32
2022-12-18T05:45:48.877Z,11.73
2022-12-18T05:48:16.204Z,11.52
2022-12-18T05:50:46.522Z,11.18
2022-12-18T05:53:14.435Z,10.15
2022-12-18T05:55:42.429Z,10.32
2022-12-18T05:58:10.405Z,10.85
2022-12-18T06:00:41.914Z,11.20
2022-12-18T06:03:09.943Z,11.38
2022-12-18T06:05:39.473Z,11.70
2022-12-18T06:08:06.754Z,12.48
2022-12-18T06:10:33.911Z,12.15
2022-12-18T06:13:01.420Z,12.95
2022-12-18T06:15:28.116Z,14.68
2022-12-18T06:17:54.752Z,12.82
2022-12-18T06:20:21.621Z,12.63
2022-12-18T06:22:48.234Z,13.15
2022-12-18T06:25:15.104Z,11.43
2022-12-18T06:27:42.238Z,12.65
2022-12-18T06:30:10.543Z,13.75
2022-12-18T06:32:37.203Z,12.40
2022-12-18T06:35:04.895Z,13.23
2022-12-18T06:37:32.564Z,11.65
2022-12-18T06:39:59.469Z,13.15
2022-12-18T06:42:26.128Z,14.32
2022-12-18T06:44:52.878Z,12.85
2022-12-18T06:47:19.834Z,16.33
2022-12-18T06:49:46.498Z,15.82
2022-12-18T06:52:13.080Z,16.30
2022-12-18T06:54:39.692Z,15.40
2022-12-18T06:57:06.264Z,16.73
2022-12-18T06:59:32.865Z,16.23
2022-12-18T07:01:59.690Z,16.75
2022-12-18T07:04:30.797Z,17.25
2022-12-18T07:06:58.341Z,16.08
2022-12-18T07:09:25.410Z,16.52
2022-12-18T07:11:52.848Z,18.83
2022-12-18T07:14:19.466Z,16.92
2022-12-18T07:16:46.198Z,14.88
2022-12-18T07:19:12.827Z,14.52
2022-12-18T07:21:39.402Z,15.80
2022-12-18T07:24:06.692Z,15.95
2022-12-18T07:26:33.347Z,15.35
2022-12-18T07:28:59.946Z,14.88
2022-12-18T07:31:27.445Z,15.43
2022-12-18T07:33:54.608Z,15.98
2022-12-18T07:36:21.474Z,15.32
2022-12-18T07:38:49.288Z,14.88
2022-12-18T07:41:16.433Z,14.70
2022-12-18T07:43:43.621Z,14.05
2022-12-18T07:46:13.446Z,13.98
2022-12-18T07:48:41.524Z,13.90
2022-12-18T07:51:08.754Z,14.93
2022-12-18T07:53:37.052Z,14.85
2022-12-18T07:58:56.914Z,12.38
2022-12-18T08:01:23.722Z,13.05
2022-12-18T08:03:52.125Z,12.98
2022-12-18T08:06:19.218Z,13.85
2022-12-18T08:08:46.007Z,11.07
2022-12-18T08:11:12.622Z,15.65
2022-12-18T08:13:39.482Z,12.75
2022-12-18T08:16:08.141Z,12.88
2022-12-18T08:18:37.074Z,15.48
2022-12-18T08:21:16.096Z,15.60
2022-12-18T08:23:43.847Z,16.45
2022-12-18T08:26:12.248Z,14.57
2022-12-18T08:28:39.289Z,14.00
2022-12-18T08:31:06.479Z,14.35
2022-12-18T08:33:34.011Z,14.80
2022-12-18T08:36:01.394Z,14.02
2022-12-18T08:38:28.306Z,13.63
2022-12-18T08:41:01.916Z,13.88
2022-12-18T08:43:47.472Z,14.70
2022-12-18T08:46:18.039Z,13.65
2022-12-18T08:48:44.955Z,14.18
2022-12-18T08:51:11.880Z,14.25
2022-12-18T08:53:39.032Z,14.05
2022-12-18T08:56:06.371Z,15.05
2022-12-18T08:58:32.995Z,14.98
2022-12-18T09:01:08.217Z,14.95
2022-12-18T09:03:34.946Z,14.52
2022-12-18T09:06:01.956Z,15.23
2022-12-18T09:08:29.177Z,15.57
2022-12-18T09:10:56.226Z,16.45
2022-12-18T09:13:23.348Z,14.40
2022-12-18T09:15:52.977Z,13.35
2022-12-18T09:18:21.638Z,13.75
2022-12-18T09:20:48.569Z,13.75
2022-12-18T09:23:15.535Z,13.90
2022-12-18T09:25:42.236Z,12.40
2022-12-18T09:28:18.310Z,12.80
2022-12-18T09:30:48.192Z,13.98
2022-12-18T09:33:14.901Z,12.50
2022-12-18T09:35:43.493Z,13.30
2022-12-18T09:38:13.641Z,13.07
2022-12-18T09:40:56.947Z,13.25
2022-12-18T09:45:59.332Z,13.52
2022-12-18T09:48:48.760Z,14.68
2022-12-18T09:51:23.806Z,15.13
2022-12-18T09:53:59.480Z,13.70
2022-12-18T09:56:29.363Z,13.93
2022-12-18T09:59:04.632Z,13.63
2022-12-18T10:01:39.140Z,15.32
2022-12-18T10:04:10.756Z,15.55
2022-12-18T10:06:52.690Z,18.08
2022-12-18T10:09:28.282Z,21.55
2022-12-18T10:12:00.814Z,14.40
2022-12-18T10:14:48.129Z,15.85
2022-12-18T10:18:02.886Z,15.13
2022-12-18T10:20:43.106Z,16.83
2022-12-18T10:23:12.462Z,16.10
2022-12-18T10:26:06.082Z,19.83
2022-12-18T10:28:35.003Z,18.20
2022-12-18T10:31:01.854Z,15.70
2022-12-18T10:33:33.602Z,16.27
2022-12-18T10:36:01.259Z,17.05
2022-12-18T10:38:30.271Z,16.73
2022-12-18T10:40:56.835Z,15.65
2022-12-18T10:43:36.602Z,16.48
2022-12-18T10:46:06.891Z,17.05
2022-12-18T10:48:37.329Z,16.33
2022-12-18T10:51:12.876Z,16.67
2022-12-18T10:53:42.306Z,14.52
2022-12-18T10:56:09.887Z,14.93
2022-12-18T10:58:39.578Z,16.73
2022-12-18T11:01:17.838Z,15.65
2022-12-18T11:03:47.298Z,14.52
2022-12-18T11:06:17.357Z,15.35
2022-12-18T11:08:57.738Z,16.10
2022-12-18T11:11:25.528Z,15.73
2022-12-18T11:14:13.479Z,15.52
2022-12-18T11:17:24.448Z,14.75
2022-12-18T11:19:40.989Z,15.73
2022-12-18T11:22:29.742Z,14.70
2022-12-18T11:27:56.945Z,14.93
2022-12-18T11:30:23.537Z,15.40
2022-12-18T11:33:02.142Z,15.25
2022-12-18T11:35:34.508Z,15.48
2022-12-18T11:40:41.255Z,16.52
2022-12-18T11:43:15.932Z,17.63
2022-12-18T11:45:53.428Z,16.25
2022-12-18T11:48:28.645Z,15.98
2022-12-18T11:50:57.765Z,15.38
2022-12-18T11:53:26.502Z,14.70
2022-12-18T11:56:28.700Z,15.43
2022-12-18T11:59:17.669Z,15.70
2022-12-18T12:01:52.032Z,16.45
2022-12-18T12:04:36.411Z,16.38
2022-12-18T12:07:22.425Z,16.10
2022-12-18T12:09:49.003Z,15.63
2022-12-18T12:12:22.653Z,17.10
2022-12-18T12:15:14.174Z,14.65
2022-12-18T12:18:00.282Z,17.02
2022-12-18T12:20:58.736Z,16.30
2022-12-18T12:23:53.281Z,15.65
2022-12-18T12:26:45.910Z,16.52
2022-12-18T12:29:28.440Z,16.52
2022-12-18T12:32:43.607Z,15.63
2022-12-18T12:35:21.197Z,15.02
2022-12-18T12:38:20.838Z,18.13
2022-12-18T12:41:03.255Z,16.95
2022-12-18T12:43:50.948Z,18.30
2022-12-18T12:46:22.351Z,14.85
2022-12-18T12:49:00.831Z,15.25
2022-12-18T12:51:35.017Z,14.93
2022-12-18T12:54:04.692Z,15.35
2022-12-18T12:56:44.677Z,15.88
2022-12-18T12:59:27.291Z,15.30
2022-12-18T13:02:05.549Z,14.07
2022-12-18T13:04:51.017Z,14.60
2022-12-18T13:07:29.794Z,14.82
2022-12-18T13:10:17.872Z,16.35
2022-12-18T13:12:57.907Z,13.60
2022-12-18T13:15:49.428Z,15.95
2022-12-18T13:18:23.722Z,17.30
2022-12-18T13:21:02.908Z,18.80
2022-12-18T13:23:41.503Z,16.05
2022-12-18T13:26:11.858Z,16.17
2022-12-18T13:28:47.296Z,15.93
2022-12-18T13:31:42.171Z,16.70
2022-12-18T13:37:40.819Z,15.88
2022-12-18T13:40:57.150Z,17.15
2022-12-18T13:43:25.660Z,15.45
2022-12-18T13:46:05.361Z,17.63
2022-12-18T13:48:37.018Z,17.15
2022-12-18T13:51:09.727Z,17.83
2022-12-18T13:53:43.511Z,15.02
2022-12-18T13:56:10.529Z,15.55
2022-12-18T13:58:37.093Z,14.32
2022-12-18T14:01:05.743Z,14.52
2022-12-18T14:03:32.631Z,14.88
2022-12-18T14:06:03.890Z,13.93
2022-12-18T14:08:36.554Z,16.08
2022-12-18T14:11:06.292Z,15.43
2022-12-18T14:13:42.205Z,16.13
2022-12-18T14:16:14.997Z,15.23
2022-12-18T14:18:53.817Z,15.85
2022-12-18T14:21:30.598Z,17.38
2022-12-18T14:24:06.103Z,14.85
2022-12-18T14:26:34.265Z,17.38
2022-12-18T14:29:19.683Z,14.98
2022-12-18T14:32:18.722Z,14.27
2022-12-18T14:34:55.113Z,14.80
2022-12-18T14:37:25.985Z,16.75
2022-12-18T14:40:11.095Z,16.42
2022-12-18T14:42:38.759Z,15.18
2022-12-18T14:45:40.930Z,16.10
2022-12-18T14:48:19.699Z,15.65
2022-12-18T14:51:01.037Z,17.02
2022-12-18T14:53:37.358Z,14.57
2022-12-18T14:56:14.612Z,14.93
2022-12-18T14:58:46.812Z,15.10
2022-12-18T15:01:57.534Z,14.00
2022-12-18T15:04:31.396Z,14.60
2022-12-18T15:07:07.846Z,15.30
2022-12-18T15:09:34.486Z,16.35
2022-12-18T15:12:02.973Z,15.07
2022-12-18T15:14:41.345Z,15.10
2022-12-18T15:17:19.730Z,15.50
2022-12-18T15:19:48.038Z,14.88
2022-12-18T15:22:36.235Z,15.65
2022-12-18T15:25:23.915Z,13.02
2022-12-18T15:27:50.577Z,15.52
2022-12-18T15:30:22.936Z,14.15
2022-12-18T15:32:50.551Z,13.82
2022-12-18T15:35:17.122Z,14.35
2022-12-18T15:37:44.069Z,14.98
2022-12-18T15:40:18.816Z,14.10
2022-12-18T15:43:06.933Z,13.55
2022-12-18T15:45:34.028Z,14.77
2022-12-18T15:48:01.069Z,14.82
2022-12-18T15:50:27.715Z,15.45
2022-12-18T15:52:56.493Z,15.40
2022-12-18T15:55:43.555Z,15.77
2022-12-18T15:58:12.374Z,15.93
2022-12-18T16:00:41.217Z,16.63
2022-12-18T16:03:08.487Z,16.88
2022-12-18T16:05:35.321Z,16.65
2022-12-18T16:08:01.957Z,15.73
2022-12-18T16:10:28.730Z,15.68
2022-12-18T16:12:55.622Z,16.05
2022-12-18T16:15:24.743Z,15.60
2022-12-18T16:17:52.941Z,16.30
2022-12-18T16:20:23.436Z,15.05
2022-12-18T16:22:50.632Z,16.40
2022-12-18T16:25:26.959Z,17.70
2022-12-18T16:27:56.080Z,15.77
2022-12-18T16:30:28.832Z,15.75
2022-12-18T16:32:59.673Z,15.93
2022-12-18T16:35:27.555Z,16.42
2022-12-18T16:37:54.298Z,13.70
2022-12-18T16:40:21.256Z,17.58
2022-12-18T16:42:47.978Z,16.08
2022-12-18T16:45:18.277Z,17.13
2022-12-18T16:47:45.307Z,17.33
2022-12-18T16:50:12.486Z,18.08
2022-12-18T16:52:42.307Z,16.48
2022-12-18T16:55:09.437Z,15.50
2022-12-18T16:57:36.179Z,16.85
2022-12-18T17:00:05.677Z,16.75
2022-12-18T17:02:33.643Z,18.13
2022-12-18T17:05:00.931Z,15.90
2022-12-18T17:07:28.707Z,16.40
2022-12-18T17:09:55.975Z,17.70
2022-12-18T17:12:28.939Z,17.25
2022-12-18T17:14:55.648Z,16.90
2022-12-18T17:17:23.321Z,17.95
2022-12-18T17:19:52.260Z,17.90
2022-12-18T17:22:20.043Z,17.38
2022-12-18T17:24:49.935Z,16.80
2022-12-18T17:27:17.002Z,18.13
2022-12-18T17:29:48.019Z,18.48
2022-12-18T17:32:16.396Z,16.48
2022-12-18T17:34:45.462Z,17.67
2022-12-18T17:37:12.665Z,17.80
2022-12-18T17:39:41.955Z,19.90
2022-12-18T17:42:15.303Z,19.38
2022-12-18T17:44:42.719Z,20.13
2022-12-18T17:47:12.796Z,19.73
2022-12-18T17:49:43.245Z,17.88
2022-12-18T17:52:10.523Z,19.90
2022-12-18T17:54:39.967Z,15.55
2022-12-18T17:57:08.248Z,17.38
2022-12-18T17:59:34.970Z,17.05
2022-12-18T18:02:01.653Z,17.17
2022-12-18T18:04:28.443Z,20.85
2022-12-18T18:06:55.051Z,18.92
2022-12-18T18:09:21.706Z,19.60
2022-12-18T18:12:06.549Z,16.73
2022-12-18T18:14:33.574Z,20.48
2022-12-18T18:17:04.679Z,18.17
2022-12-18T18:19:33.002Z,17.90
2022-12-18T18:21:59.694Z,18.52
2022-12-18T18:24:26.395Z,18.27
2022-12-18T18:26:53.356Z,19.33
2022-12-18T18:29:25.404Z,19.02
2022-12-18T18:31:54.071Z,17.23
2022-12-18T18:34:23.700Z,18.33
2022-12-18T18:36:50.737Z,19.73
2022-12-18T18:39:18.278Z,17.80
2022-12-18T18:41:45.427Z,17.45
2022-12-18T18:44:14.725Z,18.65
2022-12-18T18:46:41.559Z,18.17
2022-12-18T18:49:08.202Z,16.67
2022-12-18T18:51:35.485Z,19.55
2022-12-18T18:54:02.601Z,16.90
2022-12-18T18:59:16.693Z,17.50
2022-12-18T19:01:43.563Z,19.17
2022-12-18T19:04:10.349Z,16.92
2022-12-18T19:06:36.937Z,17.90
2022-12-18T19:09:05.041Z,19.60
2022-12-18T19:11:51.076Z,24.38
2022-12-18T19:14:18.070Z,16.88
2022-12-18T19:16:45.530Z,18.83
2022-12-18T19:19:13.062Z,19.60
2022-12-18T19:21:40.937Z,22.98
2022-12-18T19:24:07.964Z,23.20
2022-12-18T19:26:36.406Z,19.52
2022-12-18T19:29:08.254Z,20.13
2022-12-18T19:31:37.039Z,17.45
2022-12-18T19:34:06.789Z,18.58
2022-12-18T19:36:36.828Z,19.17
2022-12-18T19:39:13.214Z,19.00
2022-12-18T19:41:42.273Z,18.63
2022-12-18T19:44:11.966Z,18.17
2022-12-18T19:46:41.699Z,17.70
2022-12-18T19:49:13.660Z,18.35
2022-12-18T19:51:44.364Z,18.73
2022-12-18T19:54:16.774Z,17.40
2022-12-18T19:56:44.630Z,18.90
2022-12-18T19:59:11.253Z,17.45
2022-12-18T20:01:38.120Z,18.92
2022-12-18T20:04:05.162Z,20.35
2022-12-18T20:06:46.370Z,18.17
2022-12-18T20:09:12.987Z,17.95
2022-12-18T20:11:41.885Z,18.35
2022-12-18T20:14:11.113Z,19.55
2022-12-18T20:16:38.305Z,17.73
2022-12-18T20:19:05.505Z,18.92
2022-12-18T20:21:32.445Z,18.00
2022-12-18T20:24:00.223Z,17.65
2022-12-18T20:26:27.501Z,21.83
2022-12-18T20:28:55.580Z,17.05
2022-12-18T20:31:23.186Z,21.75
2022-12-18T20:33:52.249Z,17.73
2022-12-18T20:36:25.877Z,18.45
2022-12-18T20:38:57.042Z,16.90
2022-12-18T20:41:24.921Z,17.42
2022-12-18T20:43:51.609Z,17.90
2022-12-18T20:46:18.766Z,19.85
2022-12-18T20:48:46.174Z,18.52
2022-12-18T20:51:16.833Z,17.58
2022-12-18T20:53:44.804Z,17.92
2022-12-18T20:56:18.907Z,16.88
2022-12-18T20:58:49.809Z,19.02
2022-12-18T21:01:19.801Z,19.35
2022-12-18T21:03:48.112Z,18.73
2022-12-18T21:06:17.271Z,18.20
2022-12-18T21:08:44.705Z,17.83
2022-12-18T21:11:35.405Z,20.20
2022-12-18T21:14:08.971Z,20.75
2022-12-18T21:16:35.727Z,19.80
2022-12-18T21:19:02.515Z,18.92
2022-12-18T21:21:29.284Z,17.10
2022-12-18T21:24:01.380Z,19.05
2022-12-18T21:26:28.751Z,19.05
2022-12-18T21:29:00.309Z,19.08
2022-12-18T21:31:29.926Z,18.50
2022-12-18T21:34:01.829Z,18.85
2022-12-18T21:36:30.372Z,17.83
2022-12-18T21:38:58.341Z,18.58
2022-12-18T21:41:44.232Z,18.50
2022-12-18T21:44:16.280Z,17.60
2022-12-18T21:46:46.344Z,18.38
2022-12-18T21:49:22.876Z,17.50
2022-12-18T21:51:51.779Z,18.52
2022-12-18T21:54:19.395Z,18.20
2022-12-18T21:56:55.840Z,15.23
2022-12-18T21:59:25.194Z,17.48
2022-12-18T22:01:54.134Z,20.73
2022-12-18T22:04:21.726Z,18.33
2022-12-18T22:06:49.379Z,18.75
2022-12-18T22:09:18.809Z,16.80
2022-12-18T22:11:46.098Z,16.38
2022-12-18T22:14:14.763Z,20.17
2022-12-18T22:16:42.565Z,19.13
2022-12-18T22:19:11.426Z,17.35
2022-12-18T22:21:41.585Z,19.10
2022-12-18T22:24:13.327Z,18.77
2022-12-18T22:26:40.530Z,17.98
2022-12-18T22:29:26.538Z,20.15
2022-12-18T22:31:53.154Z,19.27
2022-12-18T22:34:22.986Z,18.45
2022-12-18T22:36:50.817Z,19.17
2022-12-18T22:39:26.261Z,18.00
2022-12-18T22:41:55.667Z,19.67
2022-12-18T22:44:25.222Z,18.88
2022-12-18T22:46:59.932Z,19.10
2022-12-18T22:49:35.083Z,19.13
2022-12-18T22:52:06.498Z,17.83
2022-12-18T22:54:33.106Z,20.35
2022-12-18T22:56:59.681Z,18.77
2022-12-18T22:59:26.370Z,17.08
2022-12-18T23:01:58.721Z,19.02
2022-12-18T23:04:29.108Z,16.92
2022-12-18T23:07:04.038Z,18.33
2022-12-18T23:09:30.675Z,17.70
2022-12-18T23:11:57.805Z,19.15
2022-12-18T23:14:24.425Z,19.15
2022-12-18T23:16:52.285Z,17.90
2022-12-18T23:19:20.064Z,17.63
2022-12-18T23:21:46.706Z,18.67
2022-12-18T23:24:13.696Z,18.25
2022-12-18T23:26:40.546Z,16.58
2022-12-18T23:29:08.025Z,18.75
2022-12-18T23:31:36.870Z,18.10
2022-12-18T23:34:05.535Z,19.75
2022-12-18T23:36:35.905Z,18.65
2022-12-18T23:39:25.810Z,18.02
2022-12-18T23:41:58.083Z,18.63
2022-12-18T23:44:25.041Z,18.13
2022-12-18T23:46:51.839Z,17.70
2022-12-18T23:49:18.541Z,18.77
2022-12-18T23:51:45.188Z,18.10
2022-12-18T23:54:11.775Z,17.27
2022-12-18T23:56:38.388Z,17.75
2022-12-18T23:59:05.063Z,18.70
